Time;durP1;ratioP1;P1;durP2;ratioP2;P2;SDS_P1;SDS_P2;PMS_P1;PMS_P2;Temp;Humidity;BMP_temperature;BMP_pressure;BME280_temperature;BME280_humidity;BME280_pressure;Samples;Min_cycle;Max_cycle;Signal;HPM_P1;HPM_P2
2023/01/23 00:01:18;;;;;;;2.97;0.50;;;26.50;93.10;;;;;;5015762;28;20507;-60
2023/01/23 00:03:46;;;;;;;2.47;1.15;;;27.20;90.00;;;;;;5007565;28;20034;-60
2023/01/23 00:06:15;;;;;;;2.35;0.68;;;27.80;79.00;;;;;;5016033;28;20030;-60
2023/01/23 00:08:44;;;;;;;0.68;0.38;;;28.10;85.40;;;;;;5018486;28;20474;-63
2023/01/23 00:11:14;;;;;;;2.33;0.47;;;29.10;80.90;;;;;;5022311;28;20053;-61
2023/01/23 00:13:41;;;;;;;0.95;0.55;;;29.40;73.60;;;;;;5029739;28;20044;-61
2023/01/23 00:16:14;;;;;;;0.85;0.32;;;29.30;73.80;;;;;;5023607;28;20026;-61
2023/01/23 00:18:41;;;;;;;1.88;0.50;;;28.90;74.40;;;;;;4996947;28;20394;-61
2023/01/23 00:21:14;;;;;;;0.98;0.30;;;28.60;72.80;;;;;;5019819;28;20028;-61
2023/01/23 00:23:46;;;;;;;0.98;0.30;;;27.90;75.90;;;;;;5026470;28;20366;-62
2023/01/23 00:26:17;;;;;;;1.85;0.32;;;27.60;78.50;;;;;;5015021;28;20049;-63
2023/01/23 00:28:45;;;;;;;1.77;0.40;;;27.40;77.40;;;;;;5003999;28;20028;-63
2023/01/23 00:31:16;;;;;;;1.42;0.73;;;27.40;78.60;;;;;;5021113;28;20021;-60
2023/01/23 00:33:44;;;;;;;4.45;0.43;;;27.80;76.40;;;;;;5020774;28;20022;-61
2023/01/23 00:36:14;;;;;;;1.40;0.30;;;28.30;75.40;;;;;;5026857;28;20022;-62
2023/01/23 00:38:41;;;;;;;1.17;0.10;;;28.90;78.40;;;;;;5011945;28;20549;-62
2023/01/23 00:41:09;;;;;;;3.70;0.30;;;28.80;75.10;;;;;;5021083;28;20040;-62
2023/01/23 00:43:36;;;;;;;1.60;0.57;;;28.40;70.70;;;;;;5018615;28;20030;-62
2023/01/23 00:46:03;;;;;;;0.93;0.30;;;28.00;71.80;;;;;;5006153;28;20029;-63
2023/01/23 00:48:31;;;;;;;1.02;0.25;;;27.50;72.40;;;;;;5029341;28;20045;-62
2023/01/23 00:50:59;;;;;;;3.42;0.52;;;27.10;74.60;;;;;;5012477;28;20022;-62
2023/01/23 00:53:26;;;;;;;1.65;0.30;;;27.00;76.20;;;;;;4991786;28;20038;-62
2023/01/23 00:55:54;;;;;;;4.05;0.45;;;27.20;75.50;;;;;;5016659;28;20022;-62
2023/01/23 00:58:22;;;;;;;2.22;0.30;;;27.60;76.30;;;;;;5013311;28;20449;-62
2023/01/23 01:00:49;;;;;;;4.90;0.73;;;27.80;73.80;;;;;;5010259;28;20156;-63
2023/01/23 01:03:18;;;;;;;4.68;0.55;;;27.90;73.60;;;;;;5011767;28;20026;-62
2023/01/23 01:05:45;;;;;;;1.88;0.60;;;27.80;76.50;;;;;;5016111;28;20360;-63
2023/01/23 01:08:12;;;;;;;0.77;0.30;;;27.80;72.80;;;;;;5011818;28;20065;-63
2023/01/23 01:10:41;;;;;;;3.30;0.90;;;27.80;74.40;;;;;;4993069;28;20626;-63
2023/01/23 01:13:09;;;;;;;1.42;0.40;;;28.00;74.40;;;;;;5010876;28;20463;-64
2023/01/23 01:15:36;;;;;;;2.45;0.40;;;28.10;73.70;;;;;;5010938;28;20025;-64
2023/01/23 01:18:04;;;;;;;3.47;0.45;;;28.20;72.50;;;;;;5026094;28;20100;-64
2023/01/23 01:20:32;;;;;;;1.13;0.17;;;28.30;73.30;;;;;;5013283;28;20021;-64
2023/01/23 01:22:59;;;;;;;0.70;0.30;;;28.60;73.20;;;;;;5017142;28;20481;-64
2023/01/23 01:25:27;;;;;;;3.15;1.08;;;28.90;71.30;;;;;;4999385;28;20044;-65
2023/01/23 01:27:55;;;;;;;0.43;0.20;;;28.90;68.00;;;;;;5024193;28;20033;-64
2023/01/23 01:30:24;;;;;;;3.08;0.43;;;28.70;67.40;;;;;;5009751;28;20030;-65
2023/01/23 01:32:51;;;;;;;1.70;0.50;;;28.00;69.30;;;;;;5008412;28;20080;-65
2023/01/23 01:35:20;;;;;;;0.98;0.35;;;28.00;69.80;;;;;;5012615;28;20036;-65
2023/01/23 01:37:48;;;;;;;2.33;0.60;;;28.00;70.10;;;;;;4991202;28;20041;-65
2023/01/23 01:40:19;;;;;;;1.70;0.35;;;28.10;70.60;;;;;;5019492;28;20025;-66
2023/01/23 01:42:59;;;;;;;0.47;0.20;;;27.80;70.70;;;;;;5006909;28;20368;-65
2023/01/23 01:46:02;;;;;;;5.82;0.60;;;27.90;69.80;;;;;;5015238;28;20129;-64
2023/01/23 01:48:33;;;;;;;2.55;0.47;;;28.10;77.80;;;;;;4998022;28;20026;-68
2023/01/23 01:51:03;;;;;;;1.55;0.50;;;28.10;70.80;;;;;;5016265;28;20025;-66
2023/01/23 01:53:32;;;;;;;0.85;0.30;;;28.20;69.50;;;;;;5021030;28;20048;-63
2023/01/23 01:55:59;;;;;;;2.10;0.73;;;28.50;70.10;;;;;;5020733;28;20024;-63
2023/01/23 01:58:28;;;;;;;6.78;0.50;;;29.00;73.80;;;;;;4995934;28;20390;-63
2023/01/23 02:00:55;;;;;;;3.13;0.73;;;29.20;67.80;;;;;;5010408;28;20018;-63
2023/01/23 02:03:23;;;;;;;1.67;0.43;;;29.40;68.40;;;;;;4991236;28;20344;-62
2023/01/23 02:05:51;;;;;;;0.93;0.45;;;29.40;69.30;;;;;;5009992;28;20037;-64
2023/01/23 02:09:06;;;;;;;3.17;0.30;;;29.60;68.60;;;;;;5024445;28;20097;-65
2023/01/23 02:11:34;;;;;;;0.82;0.40;;;29.20;67.10;;;;;;4927140;29;20055;-65
2023/01/23 02:14:01;;;;;;;2.20;0.60;;;28.80;67.40;;;;;;5002286;28;20052;-65
2023/01/23 02:16:36;;;;;;;1.98;0.50;;;28.30;71.30;;;;;;5011423;28;20075;-65
2023/01/23 02:19:14;;;;;;;2.58;0.68;;;28.00;71.30;;;;;;5014227;28;20105;-65
2023/01/23 02:21:44;;;;;;;1.85;0.40;;;28.00;71.70;;;;;;5022404;28;20033;-64
2023/01/23 02:24:28;;;;;;;2.70;0.63;;;27.80;73.40;;;;;;5010526;28;20018;-64
2023/01/23 02:26:56;;;;;;;5.35;0.80;;;27.50;76.20;;;;;;5010982;28;20442;-63
2023/01/23 02:29:24;;;;;;;4.80;0.63;;;27.20;78.20;;;;;;5015689;28;20037;-66
2023/01/23 02:31:52;;;;;;;1.70;0.52;;;27.40;81.10;;;;;;5011402;28;20014;-66
2023/01/23 02:34:21;;;;;;;3.33;0.60;;;27.40;78.80;;;;;;5006336;28;20433;-66
2023/01/23 02:36:49;;;;;;;3.13;0.63;;;27.40;80.10;;;;;;5013785;28;20029;-65
2023/01/23 02:39:18;;;;;;;2.97;0.60;;;27.40;80.10;;;;;;5016974;28;20033;-66
2023/01/23 02:41:48;;;;;;;7.22;1.08;;;27.30;83.80;;;;;;5023250;28;20017;-65
2023/01/23 02:44:28;;;;;;;1.73;0.60;;;27.10;80.60;;;;;;5011607;28;20026;-66
2023/01/23 02:46:57;;;;;;;4.40;0.70;;;26.60;82.40;;;;;;5021852;28;20014;-61
2023/01/23 02:49:24;;;;;;;1.70;0.63;;;26.80;83.80;;;;;;5020444;28;20025;-62
2023/01/23 02:51:53;;;;;;;4.20;0.70;;;26.90;85.30;;;;;;5014181;28;20549;-61
2023/01/23 02:54:22;;;;;;;1.67;0.50;;;27.10;81.40;;;;;;5025888;28;20034;-60
2023/01/23 02:56:50;;;;;;;1.42;0.52;;;27.10;80.90;;;;;;5011212;28;20029;-60
2023/01/23 03:02:04;;;;;;;4.80;0.68;;;27.60;80.40;;;;;;5006573;28;20033;-59
2023/01/23 03:04:31;;;;;;;1.65;0.50;;;27.50;80.20;;;;;;5010714;28;20029;-61
2023/01/23 03:06:59;;;;;;;3.30;0.68;;;27.60;79.50;;;;;;5008448;28;20195;-59
2023/01/23 03:09:26;;;;;;;3.42;0.60;;;27.60;80.10;;;;;;5009134;28;20084;-60
2023/01/23 03:11:54;;;;;;;2.28;0.52;;;27.60;79.00;;;;;;5008710;28;20046;-59
2023/01/23 03:14:23;;;;;;;2.28;0.50;;;28.00;78.10;;;;;;5010696;28;20545;-59
2023/01/23 03:16:52;;;;;;;2.15;0.75;;;28.10;79.40;;;;;;5009132;28;20022;-60
2023/01/23 03:19:22;;;;;;;3.35;1.15;;;28.10;78.50;;;;;;5017383;28;20064;-60
2023/01/23 03:21:50;;;;;;;4.60;0.70;;;27.60;78.70;;;;;;5011636;28;20543;-60
2023/01/23 03:24:18;;;;;;;2.90;0.77;;;27.70;79.40;;;;;;5023244;28;20026;-60
2023/01/23 03:26:47;;;;;;;2.83;0.70;;;28.00;79.70;;;;;;5007236;28;20072;-59
2023/01/23 03:32:05;;;;;;;3.78;0.73;;;28.20;76.30;;;;;;5009679;28;20041;-59
2023/01/23 03:34:32;;;;;;;1.38;0.68;;;28.40;79.70;;;;;;5022198;28;20034;-59
2023/01/23 03:37:02;;;;;;;2.35;0.60;;;28.80;74.50;;;;;;5017005;28;20016;-59
2023/01/23 03:42:14;;;;;;;1.85;0.68;;;28.50;73.70;;;;;;5027772;28;20330;-63
2023/01/23 03:44:42;;;;;;;4.05;0.88;;;28.90;73.70;;;;;;5017292;28;20188;-63
2023/01/23 03:47:09;;;;;;;2.90;0.60;;;29.10;75.10;;;;;;5021874;28;20017;-63
2023/01/23 03:49:37;;;;;;;1.75;0.50;;;28.90;72.20;;;;;;5024137;28;20053;-63
2023/01/23 03:52:04;;;;;;;6.78;0.80;;;28.90;69.60;;;;;;5014640;28;20063;-64
2023/01/23 03:54:32;;;;;;;1.35;0.47;;;28.70;71.10;;;;;;5026447;28;20806;-64
2023/01/23 03:56:59;;;;;;;2.90;0.60;;;28.10;74.20;;;;;;5018970;28;20083;-63
2023/01/23 03:59:26;;;;;;;5.63;0.65;;;28.00;75.60;;;;;;5018863;28;20083;-63
2023/01/23 04:01:54;;;;;;;1.05;0.52;;;28.10;75.40;;;;;;5025832;28;20500;-63
2023/01/23 04:04:21;;;;;;;1.95;0.40;;;28.70;70.20;;;;;;5014289;28;20017;-64
2023/01/23 04:06:49;;;;;;;1.88;0.50;;;29.20;70.90;;;;;;5023936;28;20478;-64
2023/01/23 04:09:16;;;;;;;3.42;0.50;;;29.40;68.60;;;;;;5020912;28;20044;-64
2023/01/23 04:11:44;;;;;;;3.60;0.65;;;29.10;71.50;;;;;;5016378;28;20132;-64
2023/01/23 04:14:11;;;;;;;2.13;0.40;;;29.00;73.10;;;;;;5027144;28;20397;-64
2023/01/23 04:16:38;;;;;;;4.15;1.23;;;29.20;72.50;;;;;;5016104;28;20016;-64
2023/01/23 04:19:06;;;;;;;1.85;0.60;;;29.80;71.30;;;;;;5017573;28;20026;-64
2023/01/23 04:21:33;;;;;;;1.27;0.52;;;29.80;70.10;;;;;;5008501;28;20061;-63
2023/01/23 04:24:00;;;;;;;3.55;0.52;;;29.90;69.00;;;;;;5009146;28;20240;-63
2023/01/23 04:26:28;;;;;;;3.33;1.10;;;30.00;68.30;;;;;;5011063;28;20094;-63
2023/01/23 04:28:55;;;;;;;2.80;0.75;;;29.40;69.10;;;;;;5016458;28;20057;-63
2023/01/23 04:31:23;;;;;;;3.22;0.80;;;28.90;71.10;;;;;;5017159;28;20500;-63
2023/01/23 04:33:50;;;;;;;2.90;0.70;;;28.40;71.70;;;;;;4996490;28;20033;-63
2023/01/23 04:36:17;;;;;;;4.70;0.95;;;27.70;74.00;;;;;;5015470;28;20026;-63
2023/01/23 04:38:45;;;;;;;3.08;0.50;;;28.00;73.50;;;;;;5022961;28;20029;-63
2023/01/23 04:41:31;;;;;;;4.13;0.70;;;28.00;75.60;;;;;;5009837;28;20034;-63
2023/01/23 04:44:18;;;;;;;2.30;0.60;;;27.80;77.00;;;;;;5014657;28;20111;-64
2023/01/23 04:46:48;;;;;;;5.47;0.70;;;27.20;80.50;;;;;;5014967;28;20048;-63
2023/01/23 04:49:17;;;;;;;3.80;0.70;;;26.60;82.70;;;;;;5014995;28;20478;-64
2023/01/23 04:51:46;;;;;;;5.15;0.82;;;26.30;83.90;;;;;;5007709;28;20121;-63
2023/01/23 04:54:14;;;;;;;4.70;0.70;;;26.30;86.30;;;;;;5011021;28;20372;-63
2023/01/23 04:56:42;;;;;;;5.68;0.75;;;26.10;85.70;;;;;;5010455;28;20026;-63
2023/01/23 04:59:09;;;;;;;5.20;0.93;;;26.10;87.70;;;;;;5017513;28;20101;-62
2023/01/23 05:01:37;;;;;;;4.47;0.60;;;25.90;86.80;;;;;;5011747;28;20117;-63
2023/01/23 05:04:05;;;;;;;3.38;0.80;;;26.10;88.90;;;;;;4996476;28;20504;-63
2023/01/23 05:06:32;;;;;;;3.22;0.82;;;26.20;86.40;;;;;;5015090;28;20034;-62
2023/01/23 05:09:00;;;;;;;5.50;0.90;;;26.40;86.20;;;;;;5013341;28;20014;-63
2023/01/23 05:11:27;;;;;;;5.97;0.80;;;26.30;86.80;;;;;;5006341;28;20056;-63
2023/01/23 05:13:54;;;;;;;3.45;0.75;;;26.50;87.30;;;;;;5013132;28;20037;-63
2023/01/23 05:16:22;;;;;;;3.30;0.50;;;26.70;88.30;;;;;;5013807;28;20017;-63
2023/01/23 05:18:49;;;;;;;2.10;0.50;;;26.70;86.70;;;;;;5017554;28;20025;-64
2023/01/23 05:21:16;;;;;;;3.60;0.68;;;26.50;87.50;;;;;;5014332;28;20022;-63
2023/01/23 05:23:44;;;;;;;2.95;0.68;;;26.40;88.00;;;;;;5011389;28;20018;-64
2023/01/23 05:26:11;;;;;;;1.30;0.47;;;26.30;89.60;;;;;;5010137;28;20034;-63
2023/01/23 05:28:38;;;;;;;3.05;0.80;;;26.30;90.10;;;;;;5017631;28;20026;-63
2023/01/23 05:31:05;;;;;;;5.80;1.77;;;26.30;89.80;;;;;;5014906;28;20032;-63
2023/01/23 05:33:33;;;;;;;2.25;0.60;;;26.10;88.50;;;;;;5022436;28;20044;-63
2023/01/23 05:36:01;;;;;;;3.50;0.60;;;26.10;90.30;;;;;;5013063;28;20084;-64
2023/01/23 05:38:29;;;;;;;2.33;0.63;;;26.00;89.90;;;;;;5012071;28;20048;-62
2023/01/23 05:40:57;;;;;;;4.15;0.75;;;26.00;90.10;;;;;;5009319;28;20200;-62
2023/01/23 05:43:24;;;;;;;3.85;0.70;;;25.80;90.60;;;;;;5016466;28;20483;-63
2023/01/23 05:45:51;;;;;;;3.60;1.10;;;25.70;91.60;;;;;;5009369;28;20109;-63
2023/01/23 05:48:19;;;;;;;3.22;0.60;;;25.80;91.80;;;;;;5012824;28;20033;-63
2023/01/23 05:50:46;;;;;;;5.05;0.68;;;25.80;91.40;;;;;;5020246;28;20017;-63
2023/01/23 05:53:13;;;;;;;2.88;0.82;;;25.50;91.90;;;;;;5004976;28;20041;-64
2023/01/23 05:55:40;;;;;;;2.55;0.77;;;25.50;92.60;;;;;;5007589;28;20045;-63
2023/01/23 05:58:08;;;;;;;3.35;0.75;;;25.40;92.50;;;;;;5011544;28;20036;-64
2023/01/23 06:00:35;;;;;;;5.93;0.70;;;25.40;92.60;;;;;;5007695;28;20029;-65
2023/01/23 06:03:03;;;;;;;2.22;0.60;;;25.50;92.70;;;;;;5006404;28;20022;-63
2023/01/23 06:05:30;;;;;;;3.58;1.15;;;25.70;92.80;;;;;;5005731;28;20030;-64
2023/01/23 06:07:57;;;;;;;3.15;0.60;;;25.70;91.90;;;;;;5009957;28;20076;-63
2023/01/23 06:10:25;;;;;;;3.83;0.47;;;25.60;92.20;;;;;;5011558;28;20032;-63
2023/01/23 06:12:52;;;;;;;3.78;0.60;;;25.40;91.60;;;;;;5009477;28;20061;-63
2023/01/23 06:15:19;;;;;;;1.95;0.65;;;25.10;92.70;;;;;;4991822;28;20045;-63
2023/01/23 06:17:47;;;;;;;3.63;0.52;;;25.00;93.10;;;;;;5010372;28;20018;-64
2023/01/23 06:20:15;;;;;;;2.05;0.60;;;24.90;93.10;;;;;;5011045;28;20088;-63
2023/01/23 06:22:42;;;;;;;1.80;0.50;;;24.80;93.00;;;;;;5009928;28;20471;-64
2023/01/23 06:25:10;;;;;;;1.13;0.50;;;24.80;93.10;;;;;;5010248;28;20053;-62
2023/01/23 06:27:37;;;;;;;2.22;0.73;;;24.80;92.30;;;;;;5006871;28;20505;-62
2023/01/23 06:30:05;;;;;;;2.85;0.63;;;24.80;92.60;;;;;;5008690;28;20026;-63
2023/01/23 06:32:33;;;;;;;5.75;0.80;;;24.90;93.00;;;;;;5010196;28;20017;-62
2023/01/23 06:35:01;;;;;;;3.28;0.47;;;25.00;92.90;;;;;;5009961;28;20021;-63
2023/01/23 06:37:28;;;;;;;4.40;0.68;;;25.10;93.50;;;;;;5009649;28;20022;-62
2023/01/23 06:39:55;;;;;;;3.38;0.60;;;25.10;94.70;;;;;;5007222;28;20033;-63
2023/01/23 06:42:23;;;;;;;2.15;0.63;;;25.20;94.90;;;;;;5010652;28;20010;-63
2023/01/23 06:44:50;;;;;;;1.80;0.57;;;25.40;95.00;;;;;;5009643;28;20526;-63
2023/01/23 06:47:19;;;;;;;2.67;0.70;;;25.70;94.00;;;;;;5007402;28;20120;-68
2023/01/23 06:49:46;;;;;;;4.13;0.80;;;25.90;93.50;;;;;;4990603;28;20034;-62
2023/01/23 06:52:13;;;;;;;2.85;0.77;;;26.40;93.20;;;;;;5010909;28;20022;-63
2023/01/23 06:54:41;;;;;;;5.65;0.98;;;26.60;90.90;;;;;;5015435;28;20065;-62
2023/01/23 06:57:08;;;;;;;3.92;0.88;;;26.60;90.50;;;;;;5014479;28;20041;-62
2023/01/23 06:59:36;;;;;;;2.85;0.63;;;26.40;90.40;;;;;;5013876;28;20033;-62
2023/01/23 07:02:03;;;;;;;4.10;0.75;;;26.20;91.00;;;;;;5009031;28;20092;-62
2023/01/23 07:04:31;;;;;;;4.22;0.90;;;25.80;91.50;;;;;;5005762;28;20117;-63
2023/01/23 07:06:59;;;;;;;2.88;0.70;;;25.70;91.60;;;;;;5010063;28;20030;-63
2023/01/23 07:09:26;;;;;;;4.10;0.70;;;25.60;92.30;;;;;;4988837;28;20034;-63
2023/01/23 07:11:54;;;;;;;11.80;1.02;;;25.40;93.50;;;;;;5012643;28;20040;-62
2023/01/23 07:14:22;;;;;;;4.80;1.55;;;25.30;94.40;;;;;;5018001;28;20115;-62
2023/01/23 07:16:49;;;;;;;3.92;0.90;;;25.10;95.20;;;;;;5013784;28;20037;-63
2023/01/23 07:19:16;;;;;;;3.90;0.90;;;24.90;96.40;;;;;;5032624;28;20071;-63
2023/01/23 07:21:44;;;;;;;5.80;0.68;;;24.80;97.20;;;;;;5001582;28;20026;-63
2023/01/23 07:24:11;;;;;;;4.30;0.80;;;24.60;97.40;;;;;;5008721;28;20130;-62
2023/01/23 07:26:38;;;;;;;7.25;0.90;;;24.50;98.20;;;;;;5031156;28;20017;-62
2023/01/23 07:29:10;;;;;;;2.65;1.33;;;24.50;98.00;;;;;;5029816;28;20368;-62
2023/01/23 07:31:37;;;;;;;5.63;1.35;;;24.50;98.30;;;;;;5008413;28;20474;-63
2023/01/23 07:34:04;;;;;;;6.57;1.05;;;24.50;98.70;;;;;;4998056;28;20050;-63
2023/01/23 07:36:32;;;;;;;4.68;0.85;;;24.60;98.20;;;;;;5017268;28;20084;-63
2023/01/23 07:38:59;;;;;;;3.75;1.00;;;24.60;97.90;;;;;;5024521;28;20442;-62
2023/01/23 07:41:26;;;;;;;3.35;0.80;;;24.60;98.10;;;;;;5008121;28;20026;-62
2023/01/23 07:43:54;;;;;;;3.88;0.73;;;24.70;98.20;;;;;;4999492;28;20060;-63
2023/01/23 07:46:24;;;;;;;2.20;0.80;;;24.60;97.60;;;;;;5011786;28;20405;-63
2023/01/23 07:48:52;;;;;;;2.55;0.82;;;24.60;97.70;;;;;;5011592;28;20030;-63
2023/01/23 07:51:19;;;;;;;3.35;0.60;;;24.50;97.90;;;;;;5010327;28;20097;-63
2023/01/23 07:53:46;;;;;;;6.53;0.80;;;24.40;98.20;;;;;;4995573;28;20133;-64
2023/01/23 07:56:14;;;;;;;3.58;1.58;;;24.30;98.70;;;;;;5012942;28;20068;-63
2023/01/23 07:58:41;;;;;;;2.40;0.73;;;24.10;98.70;;;;;;4995442;28;20042;-63
2023/01/23 08:01:12;;;;;;;2.10;1.05;;;24.00;99.10;;;;;;5008109;28;20098;-63
2023/01/23 08:03:39;;;;;;;6.57;1.02;;;23.90;99.90;;;;;;5009079;28;20025;-63
2023/01/23 08:06:07;;;;;;;1.23;0.55;;;23.70;99.90;;;;;;5005602;28;20121;-63
2023/01/23 08:08:34;;;;;;;5.55;0.68;;;23.60;99.90;;;;;;5006894;28;20682;-64
2023/01/23 08:11:12;;;;;;;6.65;0.80;;;23.50;99.90;;;;;;5007556;28;20104;-62
2023/01/23 08:13:39;;;;;;;2.38;0.60;;;23.40;99.90;;;;;;5011498;28;20038;-63
2023/01/23 08:16:07;;;;;;;3.75;0.88;;;23.40;99.90;;;;;;5012615;28;20022;-63
2023/01/23 08:18:34;;;;;;;1.75;0.60;;;23.30;99.90;;;;;;5008183;28;20383;-63
2023/01/23 08:21:03;;;;;;;5.28;0.70;;;23.20;99.90;;;;;;5011036;28;20701;-63
2023/01/23 08:23:32;;;;;;;1.55;0.45;;;23.10;99.90;;;;;;5012882;28;20084;-62
2023/01/23 08:26:04;;;;;;;4.43;0.50;;;23.00;99.90;;;;;;5005610;28;20087;-63
2023/01/23 08:28:31;;;;;;;2.83;0.60;;;22.90;99.90;;;;;;5005888;28;20021;-62
2023/01/23 08:31:04;;;;;;;4.75;0.82;;;22.80;99.90;;;;;;5010522;28;20022;-63
2023/01/23 08:33:33;;;;;;;4.57;0.47;;;22.70;99.90;;;;;;4994208;28;20129;-62
2023/01/23 08:36:00;;;;;;;2.38;0.70;;;22.60;99.90;;;;;;5018744;28;20426;-63
2023/01/23 08:38:30;;;;;;;2.65;0.65;;;22.60;99.90;;;;;;5019228;28;20188;-63
2023/01/23 08:41:04;;;;;;;6.25;0.70;;;22.50;99.90;;;;;;5020375;28;20091;-62
2023/01/23 08:43:32;;;;;;;2.25;0.55;;;22.50;99.90;;;;;;5005986;28;20502;-61
2023/01/23 08:46:00;;;;;;;2.58;0.60;;;22.40;99.90;;;;;;5020297;28;20022;-62
2023/01/23 08:48:28;;;;;;;4.15;0.80;;;22.30;99.90;;;;;;5017878;28;20029;-62
2023/01/23 08:51:01;;;;;;;2.70;0.60;;;22.20;99.90;;;;;;5014552;28;20026;-62
2023/01/23 08:53:30;;;;;;;3.07;0.90;;;22.20;99.90;;;;;;5015489;28;20053;-63
2023/01/23 08:56:16;;;;;;;2.22;0.70;;;22.20;99.90;;;;;;5008406;28;20275;-62
2023/01/23 08:58:44;;;;;;;6.68;1.77;;;22.10;99.90;;;;;;5019423;28;20394;-62
2023/01/23 09:01:21;;;;;;;2.42;0.70;;;22.20;99.90;;;;;;5011887;28;20032;-63
2023/01/23 09:03:49;;;;;;;3.67;1.00;;;22.20;99.90;;;;;;5018061;28;20037;-63
2023/01/23 09:06:18;;;;;;;6.68;0.88;;;22.20;99.90;;;;;;5012862;28;20021;-61
2023/01/23 09:08:46;;;;;;;4.43;0.77;;;22.10;99.90;;;;;;5016762;28;20427;-61
2023/01/23 09:11:14;;;;;;;3.08;0.82;;;22.10;99.90;;;;;;5013196;28;20045;-62
2023/01/23 09:13:41;;;;;;;3.58;0.82;;;22.00;99.90;;;;;;5010557;28;20128;-63
2023/01/23 09:16:09;;;;;;;3.45;0.73;;;22.00;99.90;;;;;;5012195;28;20026;-63
2023/01/23 09:18:37;;;;;;;4.63;1.00;;;22.00;99.90;;;;;;5012969;28;20397;-62
2023/01/23 09:21:13;;;;;;;4.78;0.90;;;21.90;99.90;;;;;;5020450;28;20057;-62
2023/01/23 09:23:41;;;;;;;3.78;0.63;;;21.80;99.90;;;;;;5011353;28;20029;-63
2023/01/23 09:26:11;;;;;;;3.05;0.60;;;21.70;99.90;;;;;;5017707;28;20079;-63
2023/01/23 09:28:41;;;;;;;4.75;0.75;;;21.70;99.90;;;;;;5004441;28;20099;-63
2023/01/23 09:31:12;;;;;;;3.67;1.15;;;21.50;99.90;;;;;;5023220;28;20040;-64
2023/01/23 09:33:39;;;;;;;3.40;0.98;;;21.40;99.90;;;;;;5004819;28;20049;-64
2023/01/23 09:36:08;;;;;;;4.05;1.20;;;21.40;99.90;;;;;;5015804;28;20376;-63
2023/01/23 09:38:35;;;;;;;3.17;0.60;;;21.30;99.90;;;;;;5014054;28;20077;-63
2023/01/23 09:41:08;;;;;;;8.65;1.25;;;21.20;99.90;;;;;;5006618;28;20034;-62
2023/01/23 09:43:44;;;;;;;4.03;1.05;;;21.10;99.90;;;;;;4990073;28;20033;-62
2023/01/23 09:46:11;;;;;;;5.65;1.65;;;21.10;99.90;;;;;;5012199;28;20042;-62
2023/01/23 09:49:34;;;;;;;4.22;0.82;;;21.00;99.90;;;;;;5005024;28;20101;-63
2023/01/23 09:52:18;;;;;;;4.75;1.00;;;20.90;99.90;;;;;;4929230;28;20065;-62
2023/01/23 09:54:54;;;;;;;6.38;1.00;;;20.80;99.90;;;;;;5007050;28;20034;-62
2023/01/23 09:57:30;;;;;;;4.10;0.75;;;20.70;99.90;;;;;;5006403;28;20513;-62
2023/01/23 10:00:15;;;;;;;6.10;0.68;;;20.60;99.90;;;;;;4990584;28;20066;-62
2023/01/23 10:02:44;;;;;;;3.33;0.70;;;20.50;99.90;;;;;;5008395;28;20033;-65
2023/01/23 10:05:16;;;;;;;6.72;1.27;;;20.50;99.90;;;;;;5004013;28;20029;-61
2023/01/23 10:07:52;;;;;;;1.95;0.50;;;20.40;99.90;;;;;;5010696;28;20041;-61
2023/01/23 10:10:22;;;;;;;5.05;0.88;;;20.40;99.90;;;;;;5004072;28;20026;-61
2023/01/23 10:13:08;;;;;;;4.97;1.55;;;20.40;99.90;;;;;;4989836;28;20057;-61
2023/01/23 10:16:05;;;;;;;5.22;0.65;;;20.40;99.90;;;;;;5005855;28;20022;-60
2023/01/23 10:18:44;;;;;;;6.00;1.00;;;20.40;99.90;;;;;;4988695;28;20032;-61
2023/01/23 10:21:24;;;;;;;4.05;0.68;;;20.20;99.90;;;;;;5009477;28;20034;-61
2023/01/23 10:24:16;;;;;;;3.90;1.08;;;20.20;99.90;;;;;;5002666;28;20377;-61
2023/01/23 10:26:45;;;;;;;6.25;1.08;;;20.10;99.90;;;;;;5011666;28;20025;-65
2023/01/23 10:29:23;;;;;;;7.45;0.90;;;20.10;99.90;;;;;;5005802;28;20537;-61
2023/01/23 10:31:56;;;;;;;4.25;1.05;;;20.10;99.90;;;;;;5009095;28;20041;-61
2023/01/23 10:34:36;;;;;;;5.97;0.70;;;19.90;99.90;;;;;;5007477;28;20083;-61
2023/01/23 10:37:15;;;;;;;8.30;0.80;;;19.90;99.90;;;;;;5003455;28;20057;-61
2023/01/23 10:39:50;;;;;;;5.82;0.55;;;19.80;99.90;;;;;;5008563;28;20026;-64
2023/01/23 10:42:24;;;;;;;4.82;1.02;;;19.70;99.90;;;;;;4999840;28;20044;-61
2023/01/23 10:44:52;;;;;;;2.90;0.63;;;19.70;99.90;;;;;;5019392;28;20488;-62
2023/01/23 10:47:58;;;;;;;4.07;1.27;;;19.70;99.90;;;;;;5013020;28;20482;-62
2023/01/23 10:50:35;;;;;;;;;;;19.80;99.90;;;;;;4938834;29;20042;-63
2023/01/23 10:53:19;;;;;;;6.18;0.77;;;19.80;99.90;;;;;;4942638;29;20000;-62
2023/01/23 10:55:47;;;;;;;5.30;0.68;;;19.90;99.90;;;;;;4986820;28;20042;-62
2023/01/23 10:58:29;;;;;;;3.97;0.95;;;19.90;99.90;;;;;;5016873;28;20017;-62
2023/01/23 11:00:57;;;;;;;3.90;0.60;;;20.00;99.90;;;;;;5007998;28;20034;-62
2023/01/23 11:03:33;;;;;;;7.65;0.85;;;20.00;99.90;;;;;;5013833;28;20029;-63
2023/01/23 11:06:15;;;;;;;4.32;0.90;;;20.10;99.90;;;;;;5014937;28;20053;-62
2023/01/23 11:09:01;;;;;;;3.63;1.35;;;20.10;99.90;;;;;;5012737;28;20034;-62
2023/01/23 11:11:31;;;;;;;10.50;1.10;;;20.20;99.90;;;;;;5016934;28;20042;-62
2023/01/23 11:14:12;;;;;;;4.50;1.15;;;20.30;99.90;;;;;;5024427;28;20410;-62
2023/01/23 11:16:40;;;;;;;7.97;1.02;;;20.30;99.90;;;;;;5009749;28;20025;-62
2023/01/23 11:19:15;;;;;;;8.57;0.70;;;20.30;99.90;;;;;;5021564;28;20029;-63
2023/01/23 11:21:53;;;;;;;12.18;1.67;;;20.30;99.90;;;;;;5014494;28;20026;-62
2023/01/23 11:24:37;;;;;;;5.53;1.00;;;20.30;99.90;;;;;;5016958;28;20025;-62
2023/01/23 11:27:26;;;;;;;3.58;0.82;;;20.30;99.90;;;;;;5005895;28;20030;-62
2023/01/23 11:30:08;;;;;;;5.07;1.20;;;20.30;99.90;;;;;;5019251;28;20044;-62
2023/01/23 11:32:47;;;;;;;6.60;1.20;;;20.30;99.90;;;;;;5013616;28;20387;-61
2023/01/23 11:35:24;;;;;;;6.88;1.58;;;20.30;99.90;;;;;;5010448;28;20477;-62
2023/01/23 11:37:55;;;;;;;4.10;0.77;;;20.30;99.90;;;;;;5018299;28;20108;-61
2023/01/23 11:40:23;;;;;;;6.00;0.90;;;20.30;99.90;;;;;;5012186;28;20029;-61
2023/01/23 11:42:51;;;;;;;4.47;1.45;;;20.30;99.90;;;;;;5009427;28;20490;-62
2023/01/23 11:45:38;;;;;;;7.97;1.05;;;20.40;99.90;;;;;;4993265;28;20033;-62
2023/01/23 11:48:33;;;;;;;5.45;1.08;;;20.40;99.90;;;;;;4987274;28;20037;-62
2023/01/23 11:51:10;;;;;;;4.07;1.20;;;20.40;99.90;;;;;;5024980;28;20925;-62
2023/01/23 11:54:12;;;;;;;5.10;0.70;;;20.40;99.90;;;;;;5007460;28;20115;-62
2023/01/23 11:56:45;;;;;;;8.38;0.88;;;20.40;99.90;;;;;;5011381;28;20393;-61
2023/01/23 11:59:33;;;;;;;3.60;0.70;;;20.40;99.90;;;;;;5018479;28;20064;-62
2023/01/23 12:02:26;;;;;;;5.05;1.00;;;20.40;99.90;;;;;;5028800;28;20105;-61
2023/01/23 12:05:19;;;;;;;6.60;1.75;;;20.40;99.90;;;;;;5017719;28;20034;-61
2023/01/23 12:07:55;;;;;;;6.88;0.85;;;20.40;99.90;;;;;;4994499;28;20061;-61
2023/01/23 12:10:47;;;;;;;5.35;0.82;;;20.40;99.90;;;;;;5014614;28;20032;-61
2023/01/23 12:13:34;;;;;;;4.78;0.77;;;20.40;99.90;;;;;;4997447;28;20050;-61
2023/01/23 12:16:23;;;;;;;4.28;0.80;;;20.50;99.90;;;;;;5004525;28;20029;-61
2023/01/23 12:19:11;;;;;;;6.85;1.20;;;20.40;99.90;;;;;;4997890;28;20589;-62
2023/01/23 12:21:45;;;;;;;3.70;0.95;;;20.40;99.90;;;;;;4992263;28;20415;-61
2023/01/23 12:24:33;;;;;;;3.72;1.42;;;20.40;99.90;;;;;;4999457;28;20022;-61
2023/01/23 12:27:20;;;;;;;5.03;0.90;;;20.50;99.90;;;;;;5003746;28;20076;-61
2023/01/23 12:30:03;;;;;;;7.45;2.03;;;20.50;99.90;;;;;;4992015;28;20022;-62
2023/01/23 12:32:48;;;;;;;4.72;0.90;;;20.50;99.90;;;;;;4981951;28;20021;-61
2023/01/23 12:35:18;;;;;;;;;;;20.50;99.90;;;;;;5001444;28;20084;-61
2023/01/23 12:38:08;;;;;;;5.82;0.90;;;20.40;99.90;;;;;;4999459;28;20264;-61
2023/01/23 12:40:46;;;;;;;9.40;0.85;;;20.50;99.90;;;;;;4983316;28;20030;-61
2023/01/23 12:43:43;;;;;;;5.93;1.25;;;20.50;99.90;;;;;;4995390;28;20121;-62
2023/01/23 12:46:28;;;;;;;6.03;0.95;;;20.40;99.90;;;;;;5004762;28;20030;-62
2023/01/23 12:49:22;;;;;;;4.30;1.00;;;20.40;99.90;;;;;;4995973;28;20476;-61
2023/01/23 12:52:15;;;;;;;7.95;1.17;;;20.30;99.90;;;;;;5006317;28;20029;-61
2023/01/23 12:55:00;;;;;;;6.38;1.13;;;20.30;99.90;;;;;;4995753;28;20106;-62
2023/01/23 12:57:40;;;;;;;3.63;1.20;;;20.30;99.90;;;;;;4999255;28;20026;-61
2023/01/23 13:00:25;;;;;;;4.03;0.70;;;20.30;99.90;;;;;;5001520;28;20022;-62
2023/01/23 13:03:16;;;;;;;5.82;1.48;;;20.20;99.90;;;;;;4997944;28;20025;-62
2023/01/23 13:05:57;;;;;;;6.53;0.93;;;20.20;99.90;;;;;;5001216;28;20030;-62
2023/01/23 13:08:40;;;;;;;3.65;0.63;;;20.20;99.90;;;;;;5007004;28;20028;-62
2023/01/23 13:11:39;;;;;;;4.60;1.17;;;20.10;99.90;;;;;;5005243;28;20050;-63
2023/01/23 13:14:43;;;;;;;5.47;1.23;;;20.00;99.90;;;;;;4943505;28;20042;-62
2023/01/23 13:17:39;;;;;;;4.55;1.15;;;20.00;99.90;;;;;;5014033;28;20041;-61
2023/01/23 13:23:24;;;;;;;5.30;1.30;;;19.80;99.90;;;;;;5024872;28;20112;-61
2023/01/23 13:26:23;;;;;;;5.47;0.88;;;19.60;99.90;;;;;;5003199;28;20026;-61